Time;durP1;ratioP1;P1;durP2;ratioP2;P2;SDS_P1;SDS_P2;PMS_P1;PMS_P2;Temp;Humidity;BMP_temperature;BMP_pressure;BME280_temperature;BME280_humidity;BME280_pressure;Samples;Min_cycle;Max_cycle;Signal;HPM_P1;HPM_P2
2022/01/01 00:01:36;;;;;;;121.10;75.95;;;;;;;;;;5072244;28;20057;-72
2022/01/01 00:04:03;;;;;;;139.27;81.05;;;;;;;;;;5072652;28;20056;-72
2022/01/01 00:06:29;;;;;;;148.50;83.13;;;;;;;;;;5071259;28;20515;-71
2022/01/01 00:08:56;;;;;;;110.22;67.25;;;;;;;;;;5072106;28;20053;-73
2022/01/01 00:11:22;;;;;;;108.90;64.55;;;;;;;;;;5072405;28;20056;-73
2022/01/01 00:13:50;;;;;;;109.30;66.18;;;;;;;;;;5073381;28;20052;-72
2022/01/01 00:16:16;;;;;;;106.22;63.78;;;;;;;;;;5074656;28;20084;-73
2022/01/01 00:18:43;;;;;;;95.18;58.03;;;;;;;;;;5072758;28;20057;-73
2022/01/01 00:21:09;;;;;;;113.70;61.53;;;;;;;;;;5083667;28;20064;-73
2022/01/01 00:23:35;;;;;;;107.57;59.92;;;;;;;;;;5077158;28;20175;-74
2022/01/01 00:26:01;;;;;;;106.95;60.88;;;;;;;;;;5078771;28;20063;-73
2022/01/01 00:28:28;;;;;;;105.78;60.78;;;;;;;;;;5072512;28;20076;-72
2022/01/01 00:30:54;;;;;;;102.57;60.50;;;;;;;;;;5074094;28;20056;-71
2022/01/01 00:33:20;;;;;;;116.15;69.30;;;;;;;;;;5063315;28;20519;-73
2022/01/01 00:35:47;;;;;;;111.63;67.70;;;;;;;;;;5073743;28;20045;-73
2022/01/01 00:38:13;;;;;;;121.22;71.82;;;;;;;;;;5073183;28;20049;-72
2022/01/01 00:40:39;;;;;;;126.13;71.93;;;;;;;;;;5088443;28;20049;-73
2022/01/01 00:43:06;;;;;;;126.70;74.05;;;;;;;;;;5082337;28;20470;-74
2022/01/01 00:45:32;;;;;;;126.13;72.43;;;;;;;;;;5074205;28;20045;-74
2022/01/01 00:47:58;;;;;;;129.07;74.72;;;;;;;;;;5076267;28;20428;-73
2022/01/01 00:50:25;;;;;;;126.68;78.05;;;;;;;;;;5073308;28;20049;-73
2022/01/01 00:52:52;;;;;;;130.82;75.97;;;;;;;;;;5074596;28;20053;-72
2022/01/01 00:55:19;;;;;;;124.45;68.63;;;;;;;;;;5072722;28;20045;-73
2022/01/01 00:57:47;;;;;;;110.72;62.80;;;;;;;;;;5077303;28;20123;-74
2022/01/01 01:00:13;;;;;;;106.43;60.47;;;;;;;;;;5074407;28;20053;-74
2022/01/01 01:02:39;;;;;;;102.05;62.03;;;;;;;;;;5090428;28;20064;-74
2022/01/01 01:05:06;;;;;;;116.45;64.35;;;;;;;;;;5073447;28;20099;-75
2022/01/01 01:07:32;;;;;;;108.80;64.00;;;;;;;;;;5080306;28;20059;-73
2022/01/01 01:09:58;;;;;;;117.72;67.18;;;;;;;;;;5080126;28;20052;-73
2022/01/01 01:12:34;;;;;;;119.38;67.80;;;;;;;;;;5071661;28;20057;-74
2022/01/01 01:15:00;;;;;;;111.55;67.25;;;;;;;;;;5073272;28;20057;-74
2022/01/01 01:17:27;;;;;;;129.18;69.88;;;;;;;;;;5070965;28;20049;-75
2022/01/01 01:19:53;;;;;;;117.68;69.97;;;;;;;;;;5074951;28;20057;-74
2022/01/01 01:22:19;;;;;;;119.10;71.03;;;;;;;;;;5073192;28;20087;-75
2022/01/01 01:24:46;;;;;;;119.90;69.32;;;;;;;;;;5072554;28;20108;-73
2022/01/01 01:27:12;;;;;;;114.50;65.90;;;;;;;;;;5086096;28;20063;-73
2022/01/01 01:29:42;;;;;;;103.93;61.22;;;;;;;;;;5071728;28;20056;-73
2022/01/01 01:32:08;;;;;;;98.95;60.38;;;;;;;;;;5079828;28;20059;-73
2022/01/01 01:34:35;;;;;;;104.22;61.53;;;;;;;;;;5080958;28;20052;-74
2022/01/01 01:37:01;;;;;;;107.18;59.70;;;;;;;;;;5076831;28;20045;-75
2022/01/01 01:39:28;;;;;;;111.15;62.50;;;;;;;;;;5071795;28;20148;-75
2022/01/01 01:41:54;;;;;;;100.20;57.42;;;;;;;;;;5072600;28;20077;-74
2022/01/01 01:44:32;;;;;;;100.03;55.83;;;;;;;;;;5078765;28;20049;-73
2022/01/01 01:47:02;;;;;;;94.60;52.92;;;;;;;;;;5073231;28;20057;-74
2022/01/01 01:49:29;;;;;;;102.97;53.05;;;;;;;;;;5072388;28;20071;-71
2022/01/01 01:51:55;;;;;;;101.97;51.92;;;;;;;;;;5070687;28;20057;-73
2022/01/01 01:54:22;;;;;;;87.22;48.55;;;;;;;;;;5074661;28;20059;-73
2022/01/01 01:56:49;;;;;;;77.97;42.75;;;;;;;;;;5072254;28;20057;-74
2022/01/01 01:59:15;;;;;;;75.65;39.58;;;;;;;;;;5075754;28;20060;-74
2022/01/01 02:01:41;;;;;;;74.07;39.15;;;;;;;;;;5071738;28;20501;-75
2022/01/01 02:04:09;;;;;;;86.07;44.08;;;;;;;;;;5076007;28;20064;-75
2022/01/01 02:06:35;;;;;;;73.07;39.03;;;;;;;;;;5074850;28;20053;-73
2022/01/01 02:09:02;;;;;;;70.63;35.58;;;;;;;;;;5070807;28;20049;-76
2022/01/01 02:11:28;;;;;;;69.75;34.00;;;;;;;;;;5065014;28;20527;-76
2022/01/01 02:18:52;;;;;;;71.00;29.42;;;;;;;;;;5078569;28;20056;-76
2022/01/01 02:21:20;;;;;;;57.83;27.63;;;;;;;;;;5072103;28;20494;-75
2022/01/01 02:23:47;;;;;;;55.15;25.40;;;;;;;;;;5070481;28;20471;-70
2022/01/01 02:26:15;;;;;;;63.55;26.67;;;;;;;;;;5074141;28;20057;-73
2022/01/01 02:28:43;;;;;;;64.60;28.30;;;;;;;;;;5074934;28;20136;-76
2022/01/01 02:31:10;;;;;;;57.47;25.02;;;;;;;;;;5074916;28;20096;-74
2022/01/01 02:33:37;;;;;;;59.85;25.33;;;;;;;;;;5093576;28;20109;-74
2022/01/01 02:36:04;;;;;;;56.10;24.85;;;;;;;;;;5076518;28;20059;-75
2022/01/01 02:38:34;;;;;;;51.45;22.52;;;;;;;;;;5078764;28;20049;-75
2022/01/01 02:41:00;;;;;;;61.15;25.02;;;;;;;;;;5076527;28;20067;-75
2022/01/01 02:43:26;;;;;;;50.28;23.77;;;;;;;;;;5064930;28;20144;-74
2022/01/01 02:45:53;;;;;;;57.38;22.45;;;;;;;;;;5075006;28;20111;-76
2022/01/01 02:48:20;;;;;;;62.35;23.85;;;;;;;;;;5074902;28;20080;-76
2022/01/01 02:50:50;;;;;;;49.53;22.17;;;;;;;;;;5073550;28;20048;-75
2022/01/01 02:53:16;;;;;;;52.78;23.27;;;;;;;;;;5076099;28;20151;-75
2022/01/01 02:55:43;;;;;;;44.28;20.48;;;;;;;;;;5081675;28;20059;-74
2022/01/01 02:58:10;;;;;;;47.28;22.58;;;;;;;;;;5074931;28;20064;-75
2022/01/01 03:00:37;;;;;;;52.63;21.95;;;;;;;;;;5074216;28;20055;-77
2022/01/01 03:03:03;;;;;;;46.60;19.98;;;;;;;;;;5075866;28;20057;-75
2022/01/01 03:05:31;;;;;;;46.33;19.27;;;;;;;;;;5075408;28;20049;-75
2022/01/01 03:07:57;;;;;;;42.25;18.63;;;;;;;;;;5080616;28;20053;-75
2022/01/01 03:10:24;;;;;;;39.03;17.98;;;;;;;;;;5075177;28;20511;-75
2022/01/01 03:12:50;;;;;;;45.13;19.10;;;;;;;;;;5075339;28;20578;-75
2022/01/01 03:15:16;;;;;;;41.45;18.15;;;;;;;;;;5074265;28;20499;-75
2022/01/01 03:17:43;;;;;;;47.42;19.35;;;;;;;;;;5078464;28;20149;-74
2022/01/01 03:20:09;;;;;;;44.80;18.48;;;;;;;;;;5075307;28;20053;-75
2022/01/01 03:22:35;;;;;;;37.45;19.10;;;;;;;;;;5073857;28;20049;-75
2022/01/01 03:25:02;;;;;;;40.28;17.20;;;;;;;;;;5084237;28;20511;-75
2022/01/01 03:27:28;;;;;;;44.20;17.02;;;;;;;;;;5079473;28;20055;-75
2022/01/01 03:29:55;;;;;;;37.88;17.33;;;;;;;;;;5076019;28;20057;-75
2022/01/01 03:32:21;;;;;;;47.60;18.35;;;;;;;;;;5075357;28;20136;-75
2022/01/01 03:34:47;;;;;;;48.08;18.65;;;;;;;;;;5077604;28;20052;-74
2022/01/01 03:37:14;;;;;;;47.35;19.77;;;;;;;;;;5073765;28;20531;-75
2022/01/01 03:39:40;;;;;;;44.80;18.77;;;;;;;;;;5083301;28;20060;-73
2022/01/01 03:42:06;;;;;;;54.03;19.10;;;;;;;;;;5073600;28;20144;-75
2022/01/01 03:44:33;;;;;;;46.17;19.55;;;;;;;;;;5074271;28;20049;-77
2022/01/01 03:47:09;;;;;;;52.20;19.83;;;;;;;;;;5074382;28;20144;-76
2022/01/01 03:49:36;;;;;;;52.17;19.95;;;;;;;;;;5074812;28;20059;-74
2022/01/01 03:52:03;;;;;;;52.58;20.00;;;;;;;;;;5079927;28;20045;-76
2022/01/01 03:54:29;;;;;;;41.85;19.55;;;;;;;;;;5070229;28;20512;-74
2022/01/01 03:56:56;;;;;;;50.10;21.38;;;;;;;;;;5075054;28;20107;-76
2022/01/01 03:59:26;;;;;;;50.63;22.08;;;;;;;;;;5076378;28;20052;-74
2022/01/01 04:01:54;;;;;;;50.15;20.63;;;;;;;;;;5079847;28;20053;-76
2022/01/01 04:04:23;;;;;;;39.60;20.92;;;;;;;;;;5061181;28;20054;-72
2022/01/01 04:06:50;;;;;;;45.67;20.48;;;;;;;;;;5070116;28;20127;-74
2022/01/01 04:09:16;;;;;;;45.00;20.63;;;;;;;;;;5073580;28;20045;-74
2022/01/01 04:11:42;;;;;;;53.58;21.77;;;;;;;;;;5078033;28;20515;-75
2022/01/01 04:14:15;;;;;;;50.17;21.13;;;;;;;;;;5072230;28;20148;-73
2022/01/01 04:16:41;;;;;;;43.47;22.55;;;;;;;;;;5073384;28;20507;-75
2022/01/01 04:19:08;;;;;;;41.78;20.92;;;;;;;;;;5071365;28;20453;-75
2022/01/01 04:21:35;;;;;;;54.10;22.75;;;;;;;;;;5065623;28;20059;-75
2022/01/01 04:24:02;;;;;;;52.45;23.33;;;;;;;;;;5073211;28;20053;-74
2022/01/01 04:26:28;;;;;;;56.22;22.92;;;;;;;;;;5083453;28;20045;-76
2022/01/01 04:28:55;;;;;;;53.90;23.77;;;;;;;;;;5073046;28;20045;-74
2022/01/01 04:31:21;;;;;;;50.67;22.90;;;;;;;;;;5073400;28;20053;-76
2022/01/01 04:33:47;;;;;;;51.83;22.92;;;;;;;;;;5072617;28;20045;-74
2022/01/01 04:36:14;;;;;;;46.55;22.35;;;;;;;;;;5074418;28;20520;-73
2022/01/01 04:38:42;;;;;;;57.55;24.02;;;;;;;;;;5071910;28;20056;-74
2022/01/01 04:41:09;;;;;;;47.42;22.88;;;;;;;;;;5077003;28;20530;-74
2022/01/01 04:43:36;;;;;;;55.38;23.63;;;;;;;;;;5072820;28;20045;-75
2022/01/01 04:46:02;;;;;;;48.92;23.52;;;;;;;;;;5071895;28;20103;-73
2022/01/01 04:48:29;;;;;;;57.58;23.25;;;;;;;;;;5083716;28;20102;-74
2022/01/01 04:50:55;;;;;;;56.88;22.67;;;;;;;;;;5078450;28;20045;-75
2022/01/01 04:53:22;;;;;;;49.03;22.73;;;;;;;;;;5076412;28;20501;-76
2022/01/01 04:55:49;;;;;;;51.03;24.42;;;;;;;;;;5073384;28;20053;-76
2022/01/01 04:58:15;;;;;;;52.63;22.98;;;;;;;;;;5072950;28;20059;-76
2022/01/01 05:00:42;;;;;;;46.15;23.58;;;;;;;;;;5072688;28;20053;-75
2022/01/01 05:03:08;;;;;;;51.92;23.90;;;;;;;;;;5074386;28;20063;-74
2022/01/01 05:05:35;;;;;;;48.10;23.10;;;;;;;;;;5080229;28;20049;-74
2022/01/01 05:08:01;;;;;;;50.90;23.33;;;;;;;;;;5071455;28;20053;-75
2022/01/01 05:10:27;;;;;;;53.67;23.50;;;;;;;;;;5072737;28;20056;-74
2022/01/01 05:12:53;;;;;;;47.97;23.13;;;;;;;;;;5074055;28;20153;-75
2022/01/01 05:15:20;;;;;;;48.15;22.00;;;;;;;;;;5074105;28;20539;-73
2022/01/01 05:17:46;;;;;;;38.72;22.00;;;;;;;;;;5072309;28;20053;-74
2022/01/01 05:20:12;;;;;;;41.38;21.40;;;;;;;;;;5081677;28;20060;-76
2022/01/01 05:22:39;;;;;;;51.22;23.42;;;;;;;;;;5074898;28;20135;-75
2022/01/01 05:25:05;;;;;;;47.88;22.15;;;;;;;;;;5072360;28;20053;-77
2022/01/01 05:27:34;;;;;;;53.60;23.98;;;;;;;;;;5075102;28;20053;-75
2022/01/01 05:30:02;;;;;;;42.25;22.30;;;;;;;;;;5084745;28;20044;-76
2022/01/01 05:32:28;;;;;;;55.50;23.92;;;;;;;;;;5076740;28;20055;-74
2022/01/01 05:34:54;;;;;;;47.83;22.40;;;;;;;;;;5075235;28;20057;-77
2022/01/01 05:37:21;;;;;;;47.92;23.30;;;;;;;;;;5071963;28;20052;-74
2022/01/01 05:39:47;;;;;;;45.90;22.17;;;;;;;;;;5072250;28;20057;-74
2022/01/01 05:42:14;;;;;;;48.17;22.90;;;;;;;;;;5080261;28;20067;-75
2022/01/01 05:44:40;;;;;;;43.88;21.92;;;;;;;;;;5076912;28;20052;-73
2022/01/01 05:47:07;;;;;;;42.97;20.67;;;;;;;;;;5078963;28;20527;-73
2022/01/01 05:49:33;;;;;;;51.17;21.88;;;;;;;;;;5070662;28;20060;-74
2022/01/01 05:51:59;;;;;;;47.15;20.42;;;;;;;;;;5086750;28;20059;-75
2022/01/01 05:54:26;;;;;;;45.22;20.52;;;;;;;;;;5083785;28;20055;-76
2022/01/01 05:56:53;;;;;;;38.65;19.20;;;;;;;;;;5076399;28;20053;-75
2022/01/01 05:59:19;;;;;;;37.92;18.83;;;;;;;;;;5074298;28;20059;-76
2022/01/01 06:01:45;;;;;;;44.15;20.58;;;;;;;;;;5074422;28;20053;-74
2022/01/01 06:04:12;;;;;;;38.78;19.02;;;;;;;;;;5072411;28;20059;-76
2022/01/01 06:06:44;;;;;;;35.78;17.05;;;;;;;;;;5075147;28;20111;-74
2022/01/01 06:09:11;;;;;;;38.63;17.63;;;;;;;;;;5078802;28;20499;-75
2022/01/01 06:11:37;;;;;;;28.63;16.60;;;;;;;;;;5073373;28;20493;-75
2022/01/01 06:14:03;;;;;;;28.52;16.48;;;;;;;;;;5074620;28;20475;-75
2022/01/01 06:16:30;;;;;;;35.60;17.13;;;;;;;;;;5073295;28;20057;-75
2022/01/01 06:18:56;;;;;;;37.33;16.83;;;;;;;;;;5080172;28;20064;-76
2022/01/01 06:21:23;;;;;;;31.95;15.18;;;;;;;;;;5078904;28;20492;-75
2022/01/01 06:23:50;;;;;;;34.67;15.15;;;;;;;;;;5063384;28;20145;-75
2022/01/01 06:26:16;;;;;;;34.40;15.38;;;;;;;;;;5071110;28;20508;-74
2022/01/01 06:28:42;;;;;;;32.53;15.57;;;;;;;;;;5069699;28;20053;-74
2022/01/01 06:31:09;;;;;;;33.65;16.13;;;;;;;;;;5064464;28;20509;-74
2022/01/01 06:33:35;;;;;;;34.72;15.35;;;;;;;;;;5069740;28;20057;-75
2022/01/01 06:36:01;;;;;;;25.85;15.02;;;;;;;;;;5069278;28;20524;-74
2022/01/01 06:38:28;;;;;;;25.95;13.68;;;;;;;;;;5068566;28;20052;-72
2022/01/01 06:40:54;;;;;;;31.45;14.63;;;;;;;;;;5065634;28;20511;-74
2022/01/01 06:43:23;;;;;;;32.78;13.38;;;;;;;;;;5060415;28;20932;-75
2022/01/01 06:45:49;;;;;;;32.75;13.00;;;;;;;;;;5064890;28;20060;-75
2022/01/01 06:48:16;;;;;;;27.42;13.43;;;;;;;;;;5059860;28;20084;-74
2022/01/01 06:50:42;;;;;;;28.00;13.18;;;;;;;;;;5071501;28;20523;-75
2022/01/01 06:53:09;;;;;;;25.02;13.05;;;;;;;;;;5070552;28;20049;-73
2022/01/01 06:55:35;;;;;;;26.40;12.82;;;;;;;;;;5063771;28;20048;-73
2022/01/01 06:58:02;;;;;;;27.67;14.15;;;;;;;;;;5071361;28;20053;-73
2022/01/01 07:00:28;;;;;;;28.65;13.90;;;;;;;;;;5061379;28;20046;-75
2022/01/01 07:02:54;;;;;;;31.33;13.40;;;;;;;;;;5063682;28;20064;-76
2022/01/01 07:05:21;;;;;;;27.65;13.68;;;;;;;;;;5064048;28;20462;-76
2022/01/01 07:07:47;;;;;;;25.80;12.88;;;;;;;;;;5056692;28;20130;-73
2022/01/01 07:10:13;;;;;;;26.52;12.25;;;;;;;;;;5056324;28;20060;-74
2022/01/01 07:12:40;;;;;;;23.58;13.00;;;;;;;;;;5072611;28;20067;-76
2022/01/01 07:15:07;;;;;;;26.95;13.10;;;;;;;;;;5067553;28;20054;-76
2022/01/01 07:17:33;;;;;;;34.50;12.55;;;;;;;;;;5057803;28;20059;-76
2022/01/01 07:19:59;;;;;;;22.95;11.77;;;;;;;;;;5055801;28;20056;-76
2022/01/01 07:22:26;;;;;;;25.00;11.60;;;;;;;;;;5056010;28;20486;-74
2022/01/01 07:24:52;;;;;;;21.20;11.00;;;;;;;;;;5071061;28;20045;-76
2022/01/01 07:27:20;;;;;;;27.55;11.05;;;;;;;;;;5074511;28;20056;-74
2022/01/01 07:29:46;;;;;;;22.35;12.18;;;;;;;;;;5063328;28;20079;-76
2022/01/01 07:32:13;;;;;;;18.50;10.48;;;;;;;;;;5056048;28;20057;-74
2022/01/01 07:34:39;;;;;;;21.65;11.35;;;;;;;;;;5069278;28;20495;-75
2022/01/01 07:37:05;;;;;;;18.08;10.02;;;;;;;;;;5071374;28;20095;-75
2022/01/01 07:39:32;;;;;;;24.45;10.88;;;;;;;;;;5072674;28;20045;-74
2022/01/01 07:41:58;;;;;;;23.38;10.73;;;;;;;;;;5069365;28;20572;-75
2022/01/01 07:44:24;;;;;;;21.33;10.40;;;;;;;;;;5064582;28;20053;-75
2022/01/01 07:46:52;;;;;;;20.55;9.65;;;;;;;;;;5057076;28;20060;-74
2022/01/01 07:49:19;;;;;;;18.50;10.25;;;;;;;;;;5067989;28;20053;-76
2022/01/01 07:51:46;;;;;;;19.98;9.23;;;;;;;;;;5064642;28;20052;-77
2022/01/01 07:54:13;;;;;;;20.52;9.00;;;;;;;;;;5072764;28;20049;-76
2022/01/01 07:56:39;;;;;;;19.77;8.38;;;;;;;;;;5064111;28;20088;-74
2022/01/01 07:59:05;;;;;;;19.27;9.13;;;;;;;;;;5066364;28;20049;-74
2022/01/01 08:01:31;;;;;;;18.95;8.48;;;;;;;;;;5060093;28;20561;-75
2022/01/01 08:04:02;;;;;;;19.27;7.78;;;;;;;;;;5071465;28;20057;-74
2022/01/01 08:06:31;;;;;;;16.52;8.52;;;;;;;;;;5068680;28;20042;-73
2022/01/01 08:08:58;;;;;;;15.10;7.57;;;;;;;;;;5066490;28;20147;-72
2022/01/01 08:11:24;;;;;;;16.35;7.93;;;;;;;;;;5073164;28;20052;-76
2022/01/01 08:13:53;;;;;;;12.43;7.38;;;;;;;;;;5058653;28;20049;-77
2022/01/01 08:16:20;;;;;;;17.17;7.30;;;;;;;;;;5057955;28;20497;-74
2022/01/01 08:18:47;;;;;;;17.38;8.68;;;;;;;;;;5072733;28;20053;-76
2022/01/01 08:21:13;;;;;;;12.30;6.95;;;;;;;;;;5065274;28;20128;-76
2022/01/01 08:23:39;;;;;;;17.35;7.28;;;;;;;;;;5058110;28;20148;-75
2022/01/01 08:26:10;;;;;;;14.00;6.63;;;;;;;;;;5068109;28;20056;-73
2022/01/01 08:28:37;;;;;;;19.15;7.25;;;;;;;;;;5070432;28;20044;-75
2022/01/01 08:31:04;;;;;;;16.00;6.10;;;;;;;;;;5068881;28;20136;-76
2022/01/01 08:33:30;;;;;;;16.80;7.88;;;;;;;;;;5067831;28;20136;-73
2022/01/01 08:35:57;;;;;;;16.05;6.47;;;;;;;;;;5071774;28;20049;-72
2022/01/01 08:38:23;;;;;;;14.07;6.75;;;;;;;;;;5062318;28;20045;-74
2022/01/01 08:40:49;;;;;;;17.25;6.50;;;;;;;;;;5066950;28;20060;-75
2022/01/01 08:43:16;;;;;;;17.38;5.88;;;;;;;;;;5068011;28;20053;-74
2022/01/01 08:45:42;;;;;;;16.33;6.13;;;;;;;;;;5064793;28;20060;-75
2022/01/01 08:48:08;;;;;;;13.10;6.13;;;;;;;;;;5057815;28;20053;-74
2022/01/01 08:50:35;;;;;;;19.40;6.20;;;;;;;;;;5051550;28;20061;-75
2022/01/01 08:53:01;;;;;;;11.88;5.13;;;;;;;;;;5065878;28;20053;-74
2022/01/01 08:55:29;;;;;;;17.02;6.50;;;;;;;;;;5063672;28;20055;-75
2022/01/01 08:57:55;;;;;;;13.05;5.68;;;;;;;;;;5059225;28;20173;-75
2022/01/01 09:00:41;;;;;;;14.73;5.95;;;;;;;;;;5062637;28;20057;-76
2022/01/01 09:03:08;;;;;;;10.95;5.18;;;;;;;;;;5071335;28;20061;-74
2022/01/01 09:05:40;;;;;;;14.05;5.53;;;;;;;;;;5059249;28;20060;-74
2022/01/01 09:08:26;;;;;;;16.02;5.70;;;;;;;;;;5066328;28;20987;-73
2022/01/01 09:10:52;;;;;;;10.77;4.97;;;;;;;;;;5061384;28;20148;-74
2022/01/01 09:13:20;;;;;;;11.88;5.63;;;;;;;;;;5065799;28;20057;-73
2022/01/01 09:15:48;;;;;;;12.65;6.50;;;;;;;;;;5055406;28;20064;-75
2022/01/01 09:18:14;;;;;;;11.98;5.72;;;;;;;;;;5058249;28;20057;-74
2022/01/01 09:20:41;;;;;;;15.18;6.28;;;;;;;;;;5056545;28;20049;-75
2022/01/01 09:23:07;;;;;;;10.52;5.30;;;;;;;;;;5056972;28;20084;-76
2022/01/01 09:25:35;;;;;;;12.75;6.05;;;;;;;;;;5054086;28;20429;-75
2022/01/01 09:28:02;;;;;;;11.68;5.47;;;;;;;;;;5067525;28;20504;-74
2022/01/01 09:30:28;;;;;;;16.10;5.80;;;;;;;;;;5071140;28;20147;-74
2022/01/01 09:32:55;;;;;;;13.88;6.03;;;;;;;;;;5066451;28;20133;-74
2022/01/01 09:35:21;;;;;;;10.00;5.25;;;;;;;;;;5052829;28;20152;-74
2022/01/01 09:37:48;;;;;;;16.10;6.05;;;;;;;;;;5057650;28;22117;-72
2022/01/01 09:40:14;;;;;;;13.27;5.65;;;;;;;;;;5069144;28;20148;-75
2022/01/01 09:42:40;;;;;;;15.75;6.40;;;;;;;;;;5059768;28;20056;-75
2022/01/01 09:45:07;;;;;;;16.25;6.95;;;;;;;;;;5056294;28;20052;-75
2022/01/01 09:47:34;;;;;;;14.93;5.82;;;;;;;;;;5063271;28;20057;-75
2022/01/01 09:50:01;;;;;;;15.38;6.28;;;;;;;;;;5058709;28;20065;-74
2022/01/01 09:52:27;;;;;;;17.90;7.15;;;;;;;;;;5062698;28;20501;-74
2022/01/01 09:54:54;;;;;;;14.27;5.80;;;;;;;;;;5058370;28;20049;-74
2022/01/01 09:57:20;;;;;;;14.82;6.40;;;;;;;;;;5067587;28;20055;-72
2022/01/01 09:59:47;;;;;;;11.77;6.55;;;;;;;;;;5064199;28;20068;-73
2022/01/01 10:02:13;;;;;;;16.25;6.72;;;;;;;;;;5064059;28;20163;-76
2022/01/01 10:04:41;;;;;;;15.55;6.90;;;;;;;;;;5056767;28;20055;-74
2022/01/01 10:07:07;;;;;;;15.68;7.40;;;;;;;;;;5057862;28;20052;-74
2022/01/01 10:09:34;;;;;;;15.80;5.78;;;;;;;;;;5068520;28;20057;-74
2022/01/01 10:12:01;;;;;;;12.20;7.07;;;;;;;;;;5054491;28;21904;-75
2022/01/01 10:14:37;;;;;;;13.80;6.78;;;;;;;;;;5066181;28;20535;-76
2022/01/01 10:17:08;;;;;;;19.98;6.97;;;;;;;;;;5070993;28;20056;-76
2022/01/01 10:19:34;;;;;;;14.85;6.85;;;;;;;;;;5069730;28;20053;-74
2022/01/01 10:22:06;;;;;;;13.50;7.03;;;;;;;;;;5069551;28;20449;-73
2022/01/01 10:27:42;;;;;;;14.20;6.75;;;;;;;;;;5070383;28;20055;-76
2022/01/01 10:30:03;;;;;;;15.57;7.00;;;;;;;;;;5067072;28;20060;-71
2022/01/01 10:32:30;;;;;;;15.35;7.70;;;;;;;;;;5063729;28;20049;-73
2022/01/01 10:34:56;;;;;;;15.45;7.35;;;;;;;;;;5059170;28;20071;-76
2022/01/01 10:37:32;;;;;;;13.05;7.45;;;;;;;;;;5070160;28;20138;-76
2022/01/01 10:39:58;;;;;;;12.32;7.68;;;;;;;;;;5060480;28;20137;-75
2022/01/01 10:42:25;;;;;;;15.32;7.68;;;;;;;;;;5058269;28;20524;-74
2022/01/01 10:44:52;;;;;;;15.45;7.53;;;;;;;;;;5070611;28;20128;-74
2022/01/01 10:47:25;;;;;;;12.07;7.20;;;;;;;;;;5059107;28;20081;-75
2022/01/01 10:50:14;;;;;;;15.57;7.65;;;;;;;;;;5073285;28;20052;-75
2022/01/01 10:52:45;;;;;;;17.00;8.05;;;;;;;;;;5071978;28;20516;-74
2022/01/01 10:55:12;;;;;;;15.23;8.43;;;;;;;;;;5058421;28;20058;-72
2022/01/01 10:57:40;;;;;;;16.40;8.00;;;;;;;;;;5069960;28;20185;-75
2022/01/01 11:00:12;;;;;;;17.75;8.80;;;;;;;;;;5061686;28;20046;-75
2022/01/01 11:02:41;;;;;;;13.68;8.27;;;;;;;;;;5064202;28;20053;-76
2022/01/01 11:05:07;;;;;;;16.05;9.30;;;;;;;;;;5063906;28;20079;-75
2022/01/01 11:07:34;;;;;;;16.80;8.77;;;;;;;;;;5070864;28;20049;-74
2022/01/01 11:10:00;;;;;;;14.43;9.30;;;;;;;;;;5072849;28;20049;-74
2022/01/01 11:12:28;;;;;;;13.10;8.43;;;;;;;;;;5067286;28;20164;-73
2022/01/01 11:14:55;;;;;;;15.35;8.88;;;;;;;;;;5066486;28;20554;-76
2022/01/01 11:17:22;;;;;;;17.98;9.25;;;;;;;;;;5066336;28;20432;-74
2022/01/01 11:19:49;;;;;;;13.07;8.38;;;;;;;;;;5068439;28;20651;-75
2022/01/01 11:22:16;;;;;;;14.55;8.55;;;;;;;;;;5073019;28;20060;-75
2022/01/01 11:24:42;;;;;;;14.23;8.82;;;;;;;;;;5063812;28;20055;-76
2022/01/01 11:27:09;;;;;;;15.75;8.55;;;;;;;;;;5066998;28;20055;-75
2022/01/01 11:29:35;;;;;;;13.60;8.20;;;;;;;;;;5074287;28;20053;-75
2022/01/01 11:32:03;;;;;;;14.60;8.52;;;;;;;;;;5065138;28;20144;-74
2022/01/01 11:34:30;;;;;;;13.93;8.70;;;;;;;;;;5073355;28;20160;-76
2022/01/01 11:36:57;;;;;;;12.73;8.32;;;;;;;;;;5066186;28;20136;-75
2022/01/01 11:39:24;;;;;;;14.60;8.73;;;;;;;;;;5071875;28;20059;-76
2022/01/01 11:41:51;;;;;;;15.50;8.88;;;;;;;;;;5077174;28;20566;-75
2022/01/01 11:44:24;;;;;;;13.48;8.13;;;;;;;;;;5074494;28;20045;-77
2022/01/01 11:47:19;;;;;;;12.98;8.55;;;;;;;;;;5073861;28;20157;-77
2022/01/01 11:49:45;;;;;;;16.00;8.82;;;;;;;;;;5074516;28;20049;-76
2022/01/01 11:52:34;;;;;;;13.00;8.35;;;;;;;;;;5074611;28;20049;-74
2022/01/01 11:55:03;;;;;;;12.57;7.63;;;;;;;;;;5073894;28;20080;-75
2022/01/01 11:57:31;;;;;;;12.88;7.75;;;;;;;;;;5073568;28;20045;-77
2022/01/01 12:00:01;;;;;;;10.63;7.65;;;;;;;;;;5073988;28;20053;-76
2022/01/01 12:02:29;;;;;;;9.60;7.10;;;;;;;;;;5073701;28;20057;-78
2022/01/01 12:05:08;;;;;;;12.48;7.18;;;;;;;;;;5074133;28;20512;-77
2022/01/01 12:07:53;;;;;;;15.70;8.40;;;;;;;;;;5074120;28;20048;-78
2022/01/01 12:10:21;;;;;;;13.90;7.53;;;;;;;;;;5074023;28;20057;-78
2022/01/01 12:12:49;;;;;;;10.75;7.35;;;;;;;;;;5074117;28;20547;-78
2022/01/01 12:15:25;;;;;;;12.95;7.30;;;;;;;;;;5074081;28;20143;-76
2022/01/01 12:17:53;;;;;;;;;;;;;;;;;;5073746;28;20081;-76
2022/01/01 12:20:21;;;;;;;12.82;7.53;;;;;;;;;;5072525;28;45825;-78
2022/01/01 12:22:48;;;;;;;14.10;7.75;;;;;;;;;;5074366;28;20140;-78
2022/01/01 12:25:20;;;;;;;13.05;7.47;;;;;;;;;;5073424;28;20056;-74
2022/01/01 12:27:48;;;;;;;13.80;7.07;;;;;;;;;;5073054;28;20055;-77
2022/01/01 12:30:15;;;;;;;13.27;6.72;;;;;;;;;;5074132;28;20052;-79
2022/01/01 12:32:44;;;;;;;14.45;8.35;;;;;;;;;;5075277;28;20537;-78
2022/01/01 12:35:17;;;;;;;15.27;7.03;;;;;;;;;;5073179;28;20049;-76
2022/01/01 12:37:43;;;;;;;11.27;7.15;;;;;;;;;;5071015;28;20499;-75
2022/01/01 12:40:10;;;;;;;13.82;7.35;;;;;;;;;;5071490;28;20056;-75
2022/01/01 12:42:37;;;;;;;9.82;6.38;;;;;;;;;;5073133;28;20057;-71
2022/01/01 12:45:05;;;;;;;10.63;6.82;;;;;;;;;;5072394;28;20068;-75
2022/01/01 12:47:31;;;;;;;11.23;6.88;;;;;;;;;;5073131;28;20051;-76
2022/01/01 12:49:59;;;;;;;10.45;6.95;;;;;;;;;;5071493;28;20115;-76
2022/01/01 12:52:28;;;;;;;11.13;6.60;;;;;;;;;;5072858;28;20057;-76
2022/01/01 12:55:00;;;;;;;12.10;6.70;;;;;;;;;;5071588;28;20523;-77
2022/01/01 12:57:31;;;;;;;12.30;6.85;;;;;;;;;;5072865;28;20085;-75
2022/01/01 13:00:18;;;;;;;13.43;6.80;;;;;;;;;;5072604;28;20180;-73
2022/01/01 13:02:44;;;;;;;9.88;6.05;;;;;;;;;;5073513;28;20089;-73
2022/01/01 13:05:11;;;;;;;9.13;5.65;;;;;;;;;;5073118;28;20059;-75
2022/01/01 13:07:40;;;;;;;8.27;6.43;;;;;;;;;;5070893;28;20140;-73
2022/01/01 13:10:06;;;;;;;9.43;5.75;;;;;;;;;;5068741;28;20053;-72
2022/01/01 13:12:34;;;;;;;10.70;5.43;;;;;;;;;;5071550;28;20540;-73
2022/01/01 13:15:00;;;;;;;11.13;6.60;;;;;;;;;;5069563;28;20060;-72
2022/01/01 13:17:26;;;;;;;10.25;6.25;;;;;;;;;;5073128;28;20056;-72
2022/01/01 13:19:53;;;;;;;9.02;6.07;;;;;;;;;;5072156;28;20072;-72
2022/01/01 13:22:29;;;;;;;12.20;5.40;;;;;;;;;;5071559;28;20045;-73
2022/01/01 13:24:55;;;;;;;10.85;6.10;;;;;;;;;;5072652;28;20052;-68
2022/01/01 13:27:28;;;;;;;7.82;5.75;;;;;;;;;;5073836;28;20052;-74
2022/01/01 13:29:55;;;;;;;10.27;5.85;;;;;;;;;;5072612;28;20048;-73
2022/01/01 13:32:22;;;;;;;7.72;5.32;;;;;;;;;;5077453;28;20072;-74
2022/01/01 13:34:49;;;;;;;7.30;5.10;;;;;;;;;;5073623;28;20108;-75
2022/01/01 13:37:21;;;;;;;7.88;5.18;;;;;;;;;;5073101;28;20152;-74
2022/01/01 13:39:47;;;;;;;9.88;5.93;;;;;;;;;;5072453;28;20132;-73
2022/01/01 13:42:17;;;;;;;7.38;5.15;;;;;;;;;;5073514;28;20083;-75
2022/01/01 13:44:43;;;;;;;9.00;5.43;;;;;;;;;;5072776;28;20052;-74
2022/01/01 13:47:15;;;;;;;8.55;5.28;;;;;;;;;;5074701;28;20135;-72
2022/01/01 13:49:50;;;;;;;8.10;4.90;;;;;;;;;;5080666;28;20579;-74
2022/01/01 13:52:17;;;;;;;7.90;5.63;;;;;;;;;;5080686;28;20048;-74
2022/01/01 13:54:43;;;;;;;9.05;4.60;;;;;;;;;;5078727;28;20511;-75
2022/01/01 13:57:15;;;;;;;8.90;4.70;;;;;;;;;;5072981;28;20457;-73
2022/01/01 13:59:42;;;;;;;11.52;5.38;;;;;;;;;;5071791;28;20531;-73
2022/01/01 14:02:10;;;;;;;8.18;5.28;;;;;;;;;;5073582;28;20509;-73
2022/01/01 14:04:37;;;;;;;8.15;5.00;;;;;;;;;;5072879;28;20161;-73
2022/01/01 14:07:04;;;;;;;9.20;5.07;;;;;;;;;;5072803;28;20049;-72
2022/01/01 14:09:31;;;;;;;8.30;5.10;;;;;;;;;;5071071;28;20048;-73
2022/01/01 14:11:58;;;;;;;10.30;4.53;;;;;;;;;;5072757;28;20053;-73
2022/01/01 14:14:31;;;;;;;7.25;5.40;;;;;;;;;;5072195;28;20053;-74
2022/01/01 14:16:58;;;;;;;7.90;5.07;;;;;;;;;;5072267;28;20562;-73
2022/01/01 14:19:25;;;;;;;10.65;5.90;;;;;;;;;;5073583;28;20515;-74
2022/01/01 14:21:54;;;;;;;12.02;4.70;;;;;;;;;;5088840;28;20053;-74
2022/01/01 14:24:21;;;;;;;8.15;4.82;;;;;;;;;;5076125;28;20117;-74
2022/01/01 14:26:49;;;;;;;10.40;4.97;;;;;;;;;;5079920;28;20051;-75
2022/01/01 14:29:17;;;;;;;9.15;5.00;;;;;;;;;;5082592;28;20052;-74
2022/01/01 14:31:44;;;;;;;8.10;5.03;;;;;;;;;;5075637;28;20056;-75
2022/01/01 14:34:15;;;;;;;9.63;6.05;;;;;;;;;;5077206;28;20053;-72